CYZX

CFB Greenwood Airport

Greenwood, Nova Scotia, Canada
METAR CYZX 121000Z 00000KT 15SM SCT028 M11/M13 A2983 RMK SC3 SLP102
Observed Flight Rules
Dec-12 @ 10:00 UTC (12 minutes ago) Visual Flight Rules
Visibility Clouds
15 miles
  • Scattered at 2,800' AGL
Temperatures Readings
Current -11°C / 12°F
Dewpoint -13°C / 9°F
Humidity 85%
Altimeter 29.83" Hg
Pressure 1010.2 hPa
Elevation 28
METAR CYZX 121000Z 00000KT 15SM SCT028 M11/M13 A2983 RMK SC3 SLP102
Observed Flight Rules
Dec-12 @ 10:00 UTC
(12 minutes ago)
VFR
Clouds
  • Scattered at 2,800' AGL
Temperature Dewpoint
-11°C / 12°F -13°C / 9°F
Humidity Altimeter Pressure
85% 29.83" Hg 1010.2 hPa